Time;durP1;ratioP1;P1;durP2;ratioP2;P2;SDS_P1;SDS_P2;PMS_P1;PMS_P2;Temp;Humidity;BMP_temperature;BMP_pressure;BME280_temperature;BME280_humidity;BME280_pressure;Samples;Min_cycle;Max_cycle;Signal;HPM_P1;HPM_P2
2023/03/24 00:00:16;;;;;;;;;;;;;;;8.68;75.86;99982.50;5031928;28;20003;-82
2023/03/24 00:02:42;;;;;;;;;;;;;;;8.86;75.54;99986.84;5033588;28;19920;-82
2023/03/24 00:05:09;;;;;;;;;;;;;;;8.39;77.18;99986.06;5030744;28;19917;-81
2023/03/24 00:07:37;;;;;;;;;;;;;;;8.09;80.22;99987.81;5033748;28;19915;-81
2023/03/24 00:10:03;;;;;;;;;;;;;;;8.00;81.58;99987.81;5031617;28;19951;-81
2023/03/24 00:12:29;;;;;;;;;;;;;;;7.89;83.92;99982.53;5033517;28;19962;-82
2023/03/24 00:14:54;;;;;;;;;;;;;;;7.96;85.30;99981.69;5033007;28;19912;-81
2023/03/24 00:17:24;;;;;;;;;;;;;;;7.86;86.40;99966.78;5032978;28;19956;-81
2023/03/24 00:19:49;;;;;;;;;;;;;;;8.24;85.73;99969.41;5022907;28;19921;-83
2023/03/24 00:22:15;;;;;;;;;;;;;;;8.53;83.28;99980.81;5014224;28;20016;-82
2023/03/24 00:24:40;;;;;;;;;;;;;;;8.50;81.50;99980.81;5013390;28;19921;-82
2023/03/24 00:27:06;;;;;;;;;;;;;;;8.23;80.71;99982.53;5013234;28;19988;-82
2023/03/24 00:29:32;;;;;;;;;;;;;;;8.11;79.78;99982.56;5013653;28;19910;-82
2023/03/24 00:31:58;;;;;;;;;;;;;;;8.19;80.37;99986.06;5014295;28;20026;-81
2023/03/24 00:34:23;;;;;;;;;;;;;;;7.88;80.53;99979.06;5013428;28;20444;-82
2023/03/24 00:36:52;;;;;;;;;;;;;;;8.12;80.33;99979.91;5013243;28;19920;-82
2023/03/24 00:39:18;;;;;;;;;;;;;;;8.37;78.62;99979.91;5027823;28;20407;-85
2023/03/24 00:41:44;;;;;;;;;;;;;;;8.24;79.00;99976.41;5031293;28;19936;-81
2023/03/24 00:44:16;;;;;;;;;;;;;;;8.34;78.16;99988.69;5032196;28;19916;-82
2023/03/24 00:46:44;;;;;;;;;;;;;;;8.32;77.44;99987.78;5032774;28;20291;-82
2023/03/24 00:49:11;;;;;;;;;;;;;;;8.30;77.31;99981.66;5032430;28;19913;-82
2023/03/24 00:51:41;;;;;;;;;;;;;;;8.30;77.66;99980.81;5032340;28;19917;-82
2023/03/24 00:54:08;;;;;;;;;;;;;;;8.34;77.19;99966.75;5015399;28;19917;-82
2023/03/24 00:56:34;;;;;;;;;;;;;;;8.38;77.10;99969.38;5011823;28;20307;-82
2023/03/24 00:59:01;;;;;;;;;;;;;;;8.37;77.18;99966.75;5013009;28;19913;-81
2023/03/24 01:01:28;;;;;;;;;;;;;;;8.29;76.78;99969.41;5013088;28;19960;-81
2023/03/24 01:03:55;;;;;;;;;;;;;;;8.23;76.99;99972.03;5014007;28;19917;-82
2023/03/24 01:06:22;;;;;;;;;;;;;;;8.18;76.33;99963.28;5012831;28;19960;-83
2023/03/24 01:08:48;;;;;;;;;;;;;;;8.13;76.35;99967.69;5012778;28;19914;-82
2023/03/24 01:11:13;;;;;;;;;;;;;;;8.10;76.01;99965.91;5012362;28;20055;-82
2023/03/24 01:13:40;;;;;;;;;;;;;;;7.91;76.81;99970.31;5008954;28;20213;-82
2023/03/24 01:16:06;;;;;;;;;;;;;;;7.94;77.14;99962.44;4992633;28;19913;-81
2023/03/24 01:18:33;;;;;;;;;;;;;;;7.95;76.42;99963.28;4992023;28;19914;-81
2023/03/24 01:21:00;;;;;;;;;;;;;;;7.95;76.63;99958.91;4992575;28;19914;-82
2023/03/24 01:23:25;;;;;;;;;;;;;;;7.94;76.56;99961.53;4997579;28;19923;-81
2023/03/24 01:25:51;;;;;;;;;;;;;;;7.91;76.68;99958.91;5012084;28;19913;-82
2023/03/24 01:28:20;;;;;;;;;;;;;;;7.96;75.84;99950.16;5012422;28;19917;-81
2023/03/24 01:30:45;;;;;;;;;;;;;;;7.95;76.08;99953.66;5012269;28;20400;-82
2023/03/24 01:33:11;;;;;;;;;;;;;;;7.84;75.75;99947.53;5012211;28;19914;-82
2023/03/24 01:35:36;;;;;;;;;;;;;;;7.85;76.64;99949.28;5012796;28;19921;-83
2023/03/24 01:38:06;;;;;;;;;;;;;;;7.74;77.32;99949.28;5018495;28;20437;-82
2023/03/24 01:40:32;;;;;;;;;;;;;;;7.89;77.21;99944.03;5032008;28;19912;-82
2023/03/24 01:42:58;;;;;;;;;;;;;;;7.80;76.76;99941.41;5022882;28;19967;-82
2023/03/24 01:45:35;;;;;;;;;;;;;;;7.66;77.45;99938.78;5041575;28;19921;-82
2023/03/24 01:48:01;;;;;;;;;;;;;;;7.67;76.99;99935.25;5011422;28;20329;-81
2023/03/24 01:50:28;;;;;;;;;;;;;;;7.53;76.62;99934.38;5012084;28;20012;-82
2023/03/24 01:52:54;;;;;;;;;;;;;;;7.44;76.56;99929.13;5013168;28;20326;-82
2023/03/24 01:55:20;;;;;;;;;;;;;;;7.18;76.88;99922.06;5012591;28;19921;-81
2023/03/24 01:57:48;;;;;;;;;;;;;;;7.03;77.65;99915.03;5011591;28;19913;-81
2023/03/24 02:00:15;;;;;;;;;;;;;;;6.88;77.38;99918.47;5011644;28;19920;-81
2023/03/24 02:02:43;;;;;;;;;;;;;;;7.04;77.02;99918.53;5012909;28;19913;-81
2023/03/24 02:05:10;;;;;;;;;;;;;;;7.08;77.01;99922.94;5012674;28;19917;-81
2023/03/24 02:07:38;;;;;;;;;;;;;;;7.15;76.99;99917.69;5011752;28;19914;-81
2023/03/24 02:10:07;;;;;;;;;;;;;;;7.18;76.30;99914.19;5011803;28;19916;-82
2023/03/24 02:12:32;;;;;;;;;;;;;;;6.70;77.01;99918.41;5029735;28;19928;-82
2023/03/24 02:14:57;;;;;;;;;;;;;;;6.79;77.00;99928.94;5029609;28;20407;-82
2023/03/24 02:17:33;;;;;;;;;;;;;;;6.93;76.37;99923.75;5031441;28;20350;-83
2023/03/24 02:20:13;;;;;;;;;;;;;;;6.86;77.02;99927.22;5031306;28;20430;-82
2023/03/24 02:22:39;;;;;;;;;;;;;;;6.97;77.55;99928.13;5030911;28;19909;-82
2023/03/24 02:25:20;;;;;;;;;;;;;;;6.94;77.58;99939.50;5031591;28;20311;-81
2023/03/24 02:27:55;;;;;;;;;;;;;;;6.55;77.62;99938.44;5029703;28;19920;-81
2023/03/24 02:30:20;;;;;;;;;;;;;;;6.66;77.67;99949.00;5028981;28;19913;-82
2023/03/24 02:33:04;;;;;;;;;;;;;;;6.74;77.74;99936.78;5030765;28;19909;-81
2023/03/24 02:35:30;;;;;;;;;;;;;;;6.86;77.31;99943.84;5031204;28;19992;-82
2023/03/24 02:37:58;;;;;;;;;;;;;;;6.77;77.70;99943.81;5029125;28;20438;-82
2023/03/24 02:40:34;;;;;;;;;;;;;;;6.84;77.41;99953.41;5030572;28;19985;-82
2023/03/24 02:43:03;;;;;;;;;;;;;;;6.82;78.52;99957.78;4991376;28;19914;-82
2023/03/24 02:45:48;;;;;;;;;;;;;;;6.85;78.35;99964.81;4991110;28;20067;-83
2023/03/24 02:48:16;;;;;;;;;;;;;;;6.93;77.77;99952.59;4991204;28;19917;-81
2023/03/24 02:50:48;;;;;;;;;;;;;;;6.75;77.60;99961.25;4991307;28;20404;-81
2023/03/24 02:53:16;;;;;;;;;;;;;;;6.65;77.78;99964.72;5012194;28;20399;-82
2023/03/24 02:55:53;;;;;;;;;;;;;;;6.78;77.42;99964.78;5010875;28;19967;-82
2023/03/24 02:58:27;;;;;;;;;;;;;;;6.79;76.95;99971.75;5010837;28;19914;-82
2023/03/24 03:00:58;;;;;;;;;;;;;;;6.84;77.02;99963.91;5010640;28;19913;-82
2023/03/24 03:03:33;;;;;;;;;;;;;;;6.80;77.54;99968.28;5012242;28;19921;-81
2023/03/24 03:06:07;;;;;;;;;;;;;;;6.21;83.24;99964.44;5011228;28;19914;-82
2023/03/24 03:08:35;;;;;;;;;;;;;;;6.45;83.00;99960.22;5010996;28;19914;-82
2023/03/24 03:11:02;;;;;;;;;;;;;;;6.75;81.37;99971.72;5017712;28;20422;-82
2023/03/24 03:13:34;;;;;;;;;;;;;;;6.73;80.63;99982.22;5011506;28;19975;-82
2023/03/24 03:16:03;;;;;;;;;;;;;;;6.58;81.40;99985.66;5010872;28;20419;-82
2023/03/24 03:18:38;;;;;;;;;;;;;;;6.47;82.86;99991.69;5011102;28;20011;-82
2023/03/24 03:21:05;;;;;;;;;;;;;;;6.50;83.97;99996.94;5010450;28;19920;-82
2023/03/24 03:23:35;;;;;;;;;;;;;;;6.59;83.03;99994.38;5011917;28;19921;-82
2023/03/24 03:26:05;;;;;;;;;;;;;;;6.74;82.81;99996.22;5010439;28;19921;-82
2023/03/24 03:28:31;;;;;;;;;;;;;;;6.89;82.18;99998.91;5010721;28;20388;-82
2023/03/24 03:31:00;;;;;;;;;;;;;;;6.56;83.52;100007.47;5010898;28;19913;-82
2023/03/24 03:33:32;;;;;;;;;;;;;;;6.63;84.22;100004.03;5010944;28;19944;-83
2023/03/24 03:36:17;;;;;;;;;;;;;;;6.72;82.69;99997.94;5011468;28;19964;-82
2023/03/24 03:38:42;;;;;;;;;;;;;;;6.71;81.09;99986.59;5010865;28;19914;-82
2023/03/24 03:41:07;;;;;;;;;;;;;;;6.74;80.81;99977.88;5010930;28;19913;-82
2023/03/24 03:43:33;;;;;;;;;;;;;;;6.42;80.51;99954.97;5015145;28;19917;-82
2023/03/24 03:45:59;;;;;;;;;;;;;;;6.32;80.61;99945.28;5014027;28;19913;-85
2023/03/24 03:48:26;;;;;;;;;;;;;;;6.32;80.04;99940.94;5014406;28;19921;-82
2023/03/24 03:50:51;;;;;;;;;;;;;;;6.47;79.60;99928.78;5013781;28;20023;-82
2023/03/24 03:53:20;;;;;;;;;;;;;;;6.51;79.10;99931.44;5013887;28;19917;-81
2023/03/24 03:55:46;;;;;;;;;;;;;;;6.32;78.96;99926.94;5015146;28;20016;-83
2023/03/24 03:58:11;;;;;;;;;;;;;;;6.02;78.83;99924.13;5032237;28;20011;-81
2023/03/24 04:00:37;;;;;;;;;;;;;;;6.16;79.28;99918.97;5002512;28;20409;-81
2023/03/24 04:03:04;;;;;;;;;;;;;;;6.28;78.92;99916.44;5022649;28;19931;-81
2023/03/24 04:05:47;;;;;;;;;;;;;;;6.44;78.06;99922.66;5013386;28;19921;-85
2023/03/24 04:08:30;;;;;;;;;;;;;;;6.26;78.76;99927.81;5000800;28;20060;-81
2023/03/24 04:10:58;;;;;;;;;;;;;;;6.36;78.89;99931.34;4994252;28;19930;-79
2023/03/24 04:13:23;;;;;;;;;;;;;;;6.62;78.20;99932.34;5000446;28;19917;-80
2023/03/24 04:15:52;;;;;;;;;;;;;;;6.49;78.85;99927.03;5006171;28;19924;-81
2023/03/24 04:18:20;;;;;;;;;;;;;;;6.36;80.04;99934.81;4995101;28;19921;-81
2023/03/24 04:20:47;;;;;;;;;;;;;;;6.47;79.02;99931.41;5008935;28;19914;-80
2023/03/24 04:23:33;;;;;;;;;;;;;;;6.43;79.63;99931.38;5026609;28;19917;-81
2023/03/24 04:26:26;;;;;;;;;;;;;;;5.99;81.92;99933.72;4993813;28;19930;-82
2023/03/24 04:28:57;;;;;;;;;;;;;;;6.30;81.89;99933.94;5028056;28;19964;-81
2023/03/24 04:31:24;;;;;;;;;;;;;;;6.50;82.31;99936.66;5031607;28;19924;-80
2023/03/24 04:33:52;;;;;;;;;;;;;;;6.53;82.60;99934.91;5029846;28;19917;-80
2023/03/24 04:36:18;;;;;;;;;;;;;;;6.42;82.94;99927.00;5029693;28;20004;-81
2023/03/24 04:38:47;;;;;;;;;;;;;;;6.03;84.78;99941.59;5029436;28;20023;-81
2023/03/24 04:41:16;;;;;;;;;;;;;;;5.77;87.73;99943.97;5027763;28;19913;-80
2023/03/24 04:43:43;;;;;;;;;;;;;;;6.06;87.71;99936.38;5032108;28;19946;-80
2023/03/24 04:46:08;;;;;;;;;;;;;;;6.00;86.83;99944.19;5029710;28;19917;-81
2023/03/24 04:48:34;;;;;;;;;;;;;;;5.81;88.11;99948.41;5026264;28;19914;-79
2023/03/24 04:51:02;;;;;;;;;;;;;;;5.64;90.51;99949.97;5009766;28;19921;-81
2023/03/24 04:53:28;;;;;;;;;;;;;;;5.98;89.16;99953.81;5013208;28;19920;-81
2023/03/24 04:56:06;;;;;;;;;;;;;;;5.84;90.24;99958.88;5007314;28;20283;-85
2023/03/24 04:58:31;;;;;;;;;;;;;;;5.95;90.50;99952.84;5030116;28;19943;-84
2023/03/24 05:00:57;;;;;;;;;;;;;;;6.34;89.58;99949.69;5030752;28;19913;-83
2023/03/24 05:03:24;;;;;;;;;;;;;;;6.49;88.66;99953.25;5036374;28;20380;-83
2023/03/24 05:05:51;;;;;;;;;;;;;;;6.61;88.76;99953.31;5014002;28;19918;-82
2023/03/24 05:08:17;;;;;;;;;;;;;;;6.86;88.25;99953.44;4992906;28;20377;-81
2023/03/24 05:10:43;;;;;;;;;;;;;;;6.81;88.31;99951.69;5012584;28;20419;-82
2023/03/24 05:13:09;;;;;;;;;;;;;;;6.99;88.03;99952.63;5012804;28;19913;-80
2023/03/24 05:15:34;;;;;;;;;;;;;;;7.11;87.14;99954.41;5011949;28;19914;-81
2023/03/24 05:18:00;;;;;;;;;;;;;;;7.37;87.19;99958.84;5008438;28;19921;-80
2023/03/24 05:20:26;;;;;;;;;;;;;;;7.51;86.00;99968.50;5010704;28;20007;-82
2023/03/24 05:22:51;;;;;;;;;;;;;;;7.41;86.35;99977.22;5011397;28;19925;-82
2023/03/24 05:25:17;;;;;;;;;;;;;;;7.28;86.98;99971.06;5010815;28;19923;-80
2023/03/24 05:27:42;;;;;;;;;;;;;;;7.23;87.60;99977.16;5012222;28;19924;-80
2023/03/24 05:30:08;;;;;;;;;;;;;;;7.45;87.58;99976.38;5011445;28;20378;-83
2023/03/24 05:32:34;;;;;;;;;;;;;;;7.58;86.32;99985.13;5012133;28;20498;-80
2023/03/24 05:34:59;;;;;;;;;;;;;;;7.87;85.57;99997.44;5027951;28;19917;-88
2023/03/24 05:37:26;;;;;;;;;;;;;;;8.18;84.56;99994.81;5004288;28;19917;-89
2023/03/24 05:39:51;;;;;;;;;;;;;;;8.31;83.46;100001.81;5009150;28;19913;-85
2023/03/24 05:42:17;;;;;;;;;;;;;;;8.47;82.72;100002.72;5012287;28;19920;-87
2023/03/24 05:44:42;;;;;;;;;;;;;;;8.59;82.50;99988.69;5006906;28;19914;-87
2023/03/24 05:47:08;;;;;;;;;;;;;;;8.46;81.58;100005.34;5003368;28;19953;-87
2023/03/24 05:49:33;;;;;;;;;;;;;;;8.28;81.20;100011.44;5006867;28;20379;-85
2023/03/24 05:51:59;;;;;;;;;;;;;;;8.47;81.45;100012.38;5006056;28;19921;-88
2023/03/24 05:54:24;;;;;;;;;;;;;;;8.63;81.01;100021.97;5005368;28;19918;-83
2023/03/24 05:56:50;;;;;;;;;;;;;;;8.86;79.58;100026.31;5017498;28;20351;-82
2023/03/24 05:59:16;;;;;;;;;;;;;;;8.90;78.11;100020.16;5007173;28;20037;-82
2023/03/24 06:01:41;;;;;;;;;;;;;;;8.91;77.14;100035.03;5008573;28;19913;-81
2023/03/24 06:04:07;;;;;;;;;;;;;;;9.33;77.03;100022.63;5012246;28;19967;-83
2023/03/24 06:06:32;;;;;;;;;;;;;;;9.60;75.90;100026.84;5029408;28;19916;-82
2023/03/24 06:09:01;;;;;;;;;;;;;;;9.87;75.56;100027.59;5014441;28;19913;-82
2023/03/24 06:11:26;;;;;;;;;;;;;;;10.16;74.21;100029.13;5009582;28;19917;-81
2023/03/24 06:13:52;;;;;;;;;;;;;;;10.41;73.52;100032.47;5011050;28;19913;-83
2023/03/24 06:16:17;;;;;;;;;;;;;;;10.51;73.16;100027.97;5010902;28;19924;-81
2023/03/24 06:18:43;;;;;;;;;;;;;;;10.82;71.28;100015.34;5011451;28;19917;-81
2023/03/24 06:21:08;;;;;;;;;;;;;;;10.80;70.97;100025.06;5009446;28;20017;-81
2023/03/24 06:23:34;;;;;;;;;;;;;;;10.65;71.95;100023.44;5006298;28;19952;-81
2023/03/24 06:26:02;;;;;;;;;;;;;;;11.38;71.25;100023.47;5009824;28;19920;-81
2023/03/24 06:28:30;;;;;;;;;;;;;;;11.60;69.51;100026.72;5009931;28;19917;-81
2023/03/24 06:30:57;;;;;;;;;;;;;;;11.66;68.04;100025.72;5011290;28;19920;-81
2023/03/24 06:33:24;;;;;;;;;;;;;;;11.58;70.12;100028.47;5011117;28;19913;-81
2023/03/24 06:35:50;;;;;;;;;;;;;;;11.84;69.96;100021.97;5010957;28;19921;-83
2023/03/24 06:38:15;;;;;;;;;;;;;;;12.21;65.96;100024.06;5011570;28;19997;-81
2023/03/24 06:40:40;;;;;;;;;;;;;;;12.54;67.46;100027.91;5010903;28;19913;-82
2023/03/24 06:43:06;;;;;;;;;;;;;;;13.28;65.83;100022.94;5011284;28;19979;-82
2023/03/24 06:45:32;;;;;;;;;;;;;;;13.43;63.01;100022.66;5010632;28;19913;-81
2023/03/24 06:47:58;;;;;;;;;;;;;;;13.48;62.79;100024.34;5010782;28;20016;-82
2023/03/24 06:50:31;;;;;;;;;;;;;;;13.70;62.54;100017.69;5011007;28;20038;-82
2023/03/24 06:52:57;;;;;;;;;;;;;;;13.54;60.90;100019.78;5010936;28;20007;-81
2023/03/24 06:55:22;;;;;;;;;;;;;;;13.62;62.42;100024.91;5011150;28;20344;-82
2023/03/24 06:57:47;;;;;;;;;;;;;;;13.34;61.50;100022.84;5010972;28;20360;-81
2023/03/24 07:00:13;;;;;;;;;;;;;;;13.85;60.07;100023.53;5010470;28;19914;-84
2023/03/24 07:02:39;;;;;;;;;;;;;;;14.37;57.59;100027.56;5010703;28;19988;-82
2023/03/24 07:05:06;;;;;;;;;;;;;;;14.20;58.71;100030.63;5010884;28;20302;-81
2023/03/24 07:07:32;;;;;;;;;;;;;;;14.10;61.04;100031.75;5010688;28;19918;-80
2023/03/24 07:09:57;;;;;;;;;;;;;;;14.65;60.81;100026.88;5010821;28;19909;-81
2023/03/24 07:12:22;;;;;;;;;;;;;;;14.83;57.67;100021.06;5010451;28;20371;-81
2023/03/24 07:14:48;;;;;;;;;;;;;;;15.06;57.41;100027.56;5010566;28;20423;-81
2023/03/24 07:17:13;;;;;;;;;;;;;;;15.05;58.46;100025.78;5012882;28;20013;-81
2023/03/24 07:19:39;;;;;;;;;;;;;;;15.07;57.52;100025.75;5014863;28;19913;-80
2023/03/24 07:22:07;;;;;;;;;;;;;;;15.20;57.89;100027.16;5014705;28;19914;-81
2023/03/24 07:24:32;;;;;;;;;;;;;;;15.54;57.22;100024.38;5014738;28;19917;-81
2023/03/24 07:26:58;;;;;;;;;;;;;;;15.53;57.43;100013.78;5014730;28;19913;-81
2023/03/24 07:29:23;;;;;;;;;;;;;;;15.40;57.44;100014.16;5014296;28;20302;-81
2023/03/24 07:31:49;;;;;;;;;;;;;;;16.14;54.82;100015.44;5014607;28;19913;-81
2023/03/24 07:34:14;;;;;;;;;;;;;;;16.27;53.84;100017.66;5014365;28;19913;-81
2023/03/24 07:36:40;;;;;;;;;;;;;;;15.93;54.17;100012.56;5014523;28;19913;-81
2023/03/24 07:39:05;;;;;;;;;;;;;;;16.08;54.33;100006.75;5014026;28;19961;-81
2023/03/24 07:41:31;;;;;;;;;;;;;;;16.15;53.99;100007.41;5014397;28;19944;-81
2023/03/24 07:43:56;;;;;;;;;;;;;;;16.14;53.19;100007.47;5013940;28;19920;-81
2023/03/24 07:46:22;;;;;;;;;;;;;;;16.38;52.63;100009.31;5014238;28;19920;-80
2023/03/24 07:48:47;;;;;;;;;;;;;;;16.64;53.12;100005.75;5014017;28;20015;-81
2023/03/24 07:51:12;;;;;;;;;;;;;;;16.73;53.23;100001.88;5014198;28;19913;-83
2023/03/24 07:53:38;;;;;;;;;;;;;;;16.75;52.08;99997.38;5014182;28;20364;-81
2023/03/24 07:56:03;;;;;;;;;;;;;;;17.06;51.24;99990.97;5013781;28;19913;-82
2023/03/24 07:58:28;;;;;;;;;;;;;;;17.05;51.62;99997.19;5012505;28;19914;-83
2023/03/24 08:00:54;;;;;;;;;;;;;;;16.92;51.07;99991.47;5012789;28;19913;-82
2023/03/24 08:03:24;;;;;;;;;;;;;;;17.00;51.76;99989.38;5012977;28;19917;-83
2023/03/24 08:05:49;;;;;;;;;;;;;;;16.47;53.51;99995.66;5012827;28;19944;-83
2023/03/24 08:08:15;;;;;;;;;;;;;;;16.51;53.46;99988.44;5013265;28;19914;-83
2023/03/24 08:10:41;;;;;;;;;;;;;;;16.81;53.74;99981.16;5012668;28;20380;-82
2023/03/24 08:13:06;;;;;;;;;;;;;;;17.32;52.21;99986.44;5012931;28;20384;-83
2023/03/24 08:15:32;;;;;;;;;;;;;;;17.26;52.78;99987.53;5013050;28;19967;-83
2023/03/24 08:17:57;;;;;;;;;;;;;;;18.01;50.95;99978.41;5013459;28;20016;-82
2023/03/24 08:20:23;;;;;;;;;;;;;;;17.95;50.22;99976.00;5013409;28;20315;-83
2023/03/24 08:22:49;;;;;;;;;;;;;;;17.70;48.41;99978.72;5013382;28;19944;-82
2023/03/24 08:25:16;;;;;;;;;;;;;;;18.02;49.10;99966.78;5013486;28;20437;-85
2023/03/24 08:27:46;;;;;;;;;;;;;;;17.84;48.50;99962.16;5011860;28;19914;-82
2023/03/24 08:30:21;;;;;;;;;;;;;;;17.97;49.15;99959.91;5012330;28;19917;-81
2023/03/24 08:32:48;;;;;;;;;;;;;;;17.90;49.29;99961.94;5012430;28;19979;-83
2023/03/24 08:35:14;;;;;;;;;;;;;;;18.06;48.99;99952.38;5012851;28;19936;-81
2023/03/24 08:37:43;;;;;;;;;;;;;;;18.30;48.17;99959.44;5012560;28;20023;-82
2023/03/24 08:40:10;;;;;;;;;;;;;;;18.45;46.78;99956.09;5012443;28;20003;-82
2023/03/24 08:42:36;;;;;;;;;;;;;;;18.46;46.69;99949.81;5012256;28;19919;-81
2023/03/24 08:45:01;;;;;;;;;;;;;;;18.47;47.26;99948.00;5012035;28;20000;-83
2023/03/24 08:47:27;;;;;;;;;;;;;;;18.13;48.48;99947.66;5012267;28;19914;-81
2023/03/24 08:49:58;;;;;;;;;;;;;;;17.74;50.57;99948.34;5013316;28;19909;-82
2023/03/24 08:52:24;;;;;;;;;;;;;;;17.39;49.10;99945.28;5012718;28;20374;-81
2023/03/24 08:54:50;;;;;;;;;;;;;;;17.09;49.49;99940.22;5012998;28;20036;-82
2023/03/24 08:57:16;;;;;;;;;;;;;;;16.71;51.14;99931.81;5012840;28;20467;-81
2023/03/24 08:59:41;;;;;;;;;;;;;;;16.98;50.30;99929.94;5012777;28;20396;-81
2023/03/24 09:02:09;;;;;;;;;;;;;;;16.88;51.69;99933.88;5012982;28;19968;-81
2023/03/24 09:04:36;;;;;;;;;;;;;;;16.72;52.23;99928.22;5013001;28;19913;-81
2023/03/24 09:07:01;;;;;;;;;;;;;;;16.84;53.32;99924.25;5011839;28;20016;-82
2023/03/24 09:09:27;;;;;;;;;;;;;;;16.75;53.23;99922.78;5012607;28;19944;-81
2023/03/24 09:11:53;;;;;;;;;;;;;;;16.82;52.41;99918.09;5012926;28;19921;-82
2023/03/24 09:14:18;;;;;;;;;;;;;;;16.89;52.15;99921.44;5012086;28;20309;-82
2023/03/24 09:16:44;;;;;;;;;;;;;;;16.90;50.92;99928.50;5012617;28;20415;-81
2023/03/24 09:19:09;;;;;;;;;;;;;;;16.80;51.41;99928.81;5012253;28;19982;-82
2023/03/24 09:21:37;;;;;;;;;;;;;;;17.16;51.31;99924.84;5012806;28;19917;-81
2023/03/24 09:24:02;;;;;;;;;;;;;;;16.98;52.08;99919.28;5012431;28;19960;-81
2023/03/24 09:26:27;;;;;;;;;;;;;;;16.76;51.78;99918.31;5011880;28;20007;-82
2023/03/24 09:28:53;;;;;;;;;;;;;;;17.14;51.56;99918.72;5012858;28;19914;-81
2023/03/24 09:31:18;;;;;;;;;;;;;;;17.24;50.31;99922.75;5012438;28;19914;-82
2023/03/24 09:33:43;;;;;;;;;;;;;;;17.32;50.51;99920.66;5012106;28;19933;-81
2023/03/24 09:36:09;;;;;;;;;;;;;;;17.02;51.34;99917.38;5012072;28;19972;-82
2023/03/24 09:38:34;;;;;;;;;;;;;;;17.05;52.15;99921.72;5012398;28;19920;-81
2023/03/24 09:41:01;;;;;;;;;;;;;;;17.21;50.06;99914.88;5011464;28;19967;-82
2023/03/24 09:43:32;;;;;;;;;;;;;;;17.43;48.83;99901.56;5012681;28;19920;-81
2023/03/24 09:46:00;;;;;;;;;;;;;;;17.48;49.92;99902.25;5011866;28;19920;-82
2023/03/24 09:48:32;;;;;;;;;;;;;;;17.69;50.73;99910.31;5043892;28;20404;-81
2023/03/24 09:51:07;;;;;;;;;;;;;;;17.38;49.50;99902.66;5011707;28;20272;-82
2023/03/24 09:53:38;;;;;;;;;;;;;;;17.05;51.47;99897.75;5011324;28;19971;-82
2023/03/24 09:56:10;;;;;;;;;;;;;;;17.38;51.94;99892.91;5010822;28;19917;-82
2023/03/24 09:58:35;;;;;;;;;;;;;;;17.49;51.79;99884.47;5011282;28;19921;-81
2023/03/24 10:01:01;;;;;;;;;;;;;;;17.34;51.28;99896.59;5009737;28;19913;-82
2023/03/24 10:03:26;;;;;;;;;;;;;;;17.30;51.19;99879.88;5010613;28;19917;-82
2023/03/24 10:06:06;;;;;;;;;;;;;;;17.43;52.95;99874.03;5011268;28;20007;-83
2023/03/24 10:08:35;;;;;;;;;;;;;;;17.42;49.95;99873.16;5008991;28;20167;-82
2023/03/24 10:11:10;;;;;;;;;;;;;;;17.46;49.36;99877.44;5011172;28;20426;-81
2023/03/24 10:13:53;;;;;;;;;;;;;;;17.33;51.74;99865.53;5010162;28;20297;-81
2023/03/24 10:16:32;;;;;;;;;;;;;;;17.63;49.73;99862.56;5006429;28;19925;-83
2023/03/24 10:18:57;;;;;;;;;;;;;;;18.17;49.64;99866.50;5003728;28;19918;-82
2023/03/24 10:21:25;;;;;;;;;;;;;;;17.87;48.56;99861.53;5007680;28;19924;-82
2023/03/24 10:24:05;;;;;;;;;;;;;;;17.93;49.70;99862.22;5004957;28;19975;-83
2023/03/24 10:26:31;;;;;;;;;;;;;;;18.17;48.99;99853.16;5011155;28;19917;-84
2023/03/24 10:28:58;;;;;;;;;;;;;;;17.96;48.42;99854.94;5010347;28;19921;-85
2023/03/24 10:31:43;;;;;;;;;;;;;;;18.10;48.27;99851.69;5007967;28;20111;-84
2023/03/24 10:34:10;;;;;;;;;;;;;;;17.64;47.23;99851.84;5008387;28;19930;-82
2023/03/24 10:36:38;;;;;;;;;;;;;;;18.10;45.66;99840.16;5006144;28;19914;-82
2023/03/24 10:39:03;;;;;;;;;;;;;;;18.34;47.59;99832.88;5004460;28;19987;-83
2023/03/24 10:41:30;;;;;;;;;;;;;;;18.76;47.39;99834.50;4998427;28;20392;-83
2023/03/24 10:43:58;;;;;;;;;;;;;;;18.26;47.42;99833.22;5005270;28;19917;-83
2023/03/24 10:46:24;;;;;;;;;;;;;;;18.51;48.13;99837.44;5002177;28;20445;-83
2023/03/24 10:49:05;;;;;;;;;;;;;;;18.40;49.07;99819.25;5009991;28;19927;-83
2023/03/24 10:51:31;;;;;;;;;;;;;;;18.73;48.47;99823.94;5041127;28;19918;-85
2023/03/24 10:54:10;;;;;;;;;;;;;;;18.76;47.68;99823.81;5009043;28;19972;-83
2023/03/24 10:56:42;;;;;;;;;;;;;;;18.85;49.42;99820.75;5009945;28;19987;-83
2023/03/24 10:59:34;;;;;;;;;;;;;;;18.76;46.40;99815.78;5008638;28;19913;-83
2023/03/24 11:01:59;;;;;;;;;;;;;;;18.96;48.18;99810.41;5015999;28;20003;-82
2023/03/24 11:04:25;;;;;;;;;;;;;;;18.88;48.21;99806.38;5009958;28;20335;-83
2023/03/24 11:07:00;;;;;;;;;;;;;;;18.61;45.61;99799.56;5041522;28;20354;-82
2023/03/24 11:09:25;;;;;;;;;;;;;;;18.87;47.04;99799.28;5010027;28;19914;-83
2023/03/24 11:11:52;;;;;;;;;;;;;;;19.21;45.27;99792.31;5009986;28;19971;-85
2023/03/24 11:14:22;;;;;;;;;;;;;;;19.39;45.42;99790.53;5010040;28;19909;-83
2023/03/24 11:16:48;;;;;;;;;;;;;;;19.13;44.70;99780.16;5009631;28;19971;-83
2023/03/24 11:19:18;;;;;;;;;;;;;;;18.89;45.83;99781.38;5010447;28;19917;-84
2023/03/24 11:21:43;;;;;;;;;;;;;;;19.11;44.46;99768.69;5009793;28;19913;-84
2023/03/24 11:24:14;;;;;;;;;;;;;;;19.02;48.62;99763.81;5009884;28;20229;-83
2023/03/24 11:26:40;;;;;;;;;;;;;;;18.75;46.43;99766.84;5009737;28;19940;-83
2023/03/24 11:29:08;;;;;;;;;;;;;;;18.99;46.48;99757.75;5009468;28;19913;-83
2023/03/24 11:31:37;;;;;;;;;;;;;;;19.10;46.64;99761.59;5009540;28;20023;-83
2023/03/24 11:34:07;;;;;;;;;;;;;;;19.43;44.78;99743.94;5010188;28;20355;-84
2023/03/24 11:36:35;;;;;;;;;;;;;;;19.42;44.09;99745.78;5041472;28;20354;-84
2023/03/24 11:39:09;;;;;;;;;;;;;;;19.55;42.96;99737.97;5008379;28;20004;-83
2023/03/24 11:41:36;;;;;;;;;;;;;;;19.24;42.37;99742.22;5010030;28;19915;-83
2023/03/24 11:44:21;;;;;;;;;;;;;;;19.22;43.75;99733.41;5010311;28;19914;-82
2023/03/24 11:46:48;;;;;;;;;;;;;;;19.35;44.07;99728.28;5010482;28;19916;-82
2023/03/24 11:49:15;;;;;;;;;;;;;;;19.08;44.55;99722.53;5010544;28;19917;-84
2023/03/24 11:51:43;;;;;;;;;;;;;;;18.91;44.90;99726.91;5009457;28;20379;-83
2023/03/24 11:54:13;;;;;;;;;;;;;;;19.23;44.35;99711.09;5009574;28;19909;-83
2023/03/24 11:56:41;;;;;;;;;;;;;;;19.60;45.58;99713.66;5009674;28;20304;-82
2023/03/24 11:59:15;;;;;;;;;;;;;;;19.71;43.74;99703.28;5010192;28;19914;-83
2023/03/24 12:01:48;;;;;;;;;;;;;;;19.54;44.02;99701.50;5009950;28;20023;-82
2023/03/24 12:04:23;;;;;;;;;;;;;;;19.48;42.44;99699.13;5013186;28;20403;-83
2023/03/24 12:06:48;;;;;;;;;;;;;;;19.77;42.35;99697.63;5013033;28;19920;-83
2023/03/24 12:09:17;;;;;;;;;;;;;;;19.82;43.36;99692.03;5012932;28;19917;-84
2023/03/24 12:11:55;;;;;;;;;;;;;;;20.10;42.09;99687.88;5044442;28;20298;-83
2023/03/24 12:14:35;;;;;;;;;;;;;;;19.95;41.87;99686.88;5012528;28;20391;-83
2023/03/24 12:17:06;;;;;;;;;;;;;;;19.97;41.86;99679.63;5012666;28;20383;-83
2023/03/24 12:19:41;;;;;;;;;;;;;;;20.25;41.72;99672.75;5012834;28;19921;-82
2023/03/24 12:22:12;;;;;;;;;;;;;;;19.96;41.27;99670.75;5012738;28;19914;-82
2023/03/24 12:24:56;;;;;;;;;;;;;;;19.71;42.24;99667.59;5012827;28;19955;-83
2023/03/24 12:27:31;;;;;;;;;;;;;;;19.91;40.94;99664.78;5012631;28;20432;-83
2023/03/24 12:30:14;;;;;;;;;;;;;;;20.19;41.18;99663.28;5012034;28;19913;-83
2023/03/24 12:32:49;;;;;;;;;;;;;;;19.70;40.63;99655.19;5012572;28;19917;-83
2023/03/24 12:35:27;;;;;;;;;;;;;;;19.60;40.01;99658.34;5012890;28;20391;-84
2023/03/24 12:37:53;;;;;;;;;;;;;;;19.65;38.67;99648.25;5012678;28;19979;-83
2023/03/24 12:40:37;;;;;;;;;;;;;;;19.90;37.06;99651.47;5012152;28;19921;-84
2023/03/24 12:43:11;;;;;;;;;;;;;;;20.14;36.07;99643.91;5012765;28;19913;-83
2023/03/24 12:45:43;;;;;;;;;;;;;;;20.31;35.82;99634.91;5011727;28;19914;-84
2023/03/24 12:48:13;;;;;;;;;;;;;;;20.28;37.39;99632.41;5012284;28;19914;-84
2023/03/24 12:50:45;;;;;;;;;;;;;;;19.89;41.17;99625.66;5011779;28;20371;-84
2023/03/24 12:53:22;;;;;;;;;;;;;;;19.85;40.22;99635.66;5012829;28;19963;-84
2023/03/24 12:55:47;;;;;;;;;;;;;;;20.14;40.61;99627.81;5013492;28;19973;-84